Time;durP1;ratioP1;P1;durP2;ratioP2;P2;SDS_P1;SDS_P2;PMS_P1;PMS_P2;Temp;Humidity;BMP_temperature;BMP_pressure;BME280_temperature;BME280_humidity;BME280_pressure;Samples;Min_cycle;Max_cycle;Signal;HPM_P1;HPM_P2
2023/03/28 00:02:28;;;;;;;3.55;1.83;;;24.00;99.90;;;;;;5054527;28;20193;-77
2023/03/28 00:04:59;;;;;;;2.78;1.73;;;23.90;99.90;;;;;;5054221;28;20201;-77
2023/03/28 00:07:30;;;;;;;3.85;2.20;;;24.00;99.90;;;;;;5053987;28;20201;-76
2023/03/28 00:10:02;;;;;;;5.32;2.30;;;24.00;99.90;;;;;;5054305;28;20224;-76
2023/03/28 00:12:33;;;;;;;4.75;2.00;;;24.00;99.90;;;;;;5054044;28;20198;-77
2023/03/28 00:15:05;;;;;;;4.65;1.65;;;24.10;99.90;;;;;;5054047;28;20645;-76
2023/03/28 00:17:40;;;;;;;8.40;1.73;;;24.20;99.90;;;;;;5068930;28;20205;-76
2023/03/28 00:20:13;;;;;;;2.05;1.60;;;24.30;99.90;;;;;;5073612;28;20299;-77
2023/03/28 00:22:44;;;;;;;3.30;1.73;;;24.40;99.90;;;;;;5074163;28;20189;-77
2023/03/28 00:25:15;;;;;;;2.38;1.67;;;24.60;99.90;;;;;;5073209;28;20197;-78
2023/03/28 00:27:46;;;;;;;4.45;1.80;;;24.70;99.90;;;;;;5076330;28;20219;-77
2023/03/28 00:30:17;;;;;;;2.70;1.70;;;24.70;99.90;;;;;;5088390;28;20551;-77
2023/03/28 00:32:50;;;;;;;3.05;1.30;;;24.80;99.90;;;;;;5063852;28;20197;-77
2023/03/28 00:35:21;;;;;;;2.92;1.63;;;24.90;99.90;;;;;;5071510;28;20196;-77
2023/03/28 00:37:57;;;;;;;4.20;1.60;;;25.00;99.90;;;;;;5070658;28;20193;-77
2023/03/28 00:40:29;;;;;;;2.92;1.40;;;25.10;99.90;;;;;;5053453;28;20252;-77
2023/03/28 00:43:00;;;;;;;4.53;1.67;;;25.20;99.90;;;;;;5053288;28;20657;-77
2023/03/28 00:45:31;;;;;;;4.50;1.65;;;25.20;99.90;;;;;;5074249;28;20207;-77
2023/03/28 00:48:08;;;;;;;4.32;1.70;;;25.10;99.90;;;;;;5069102;28;20207;-77
2023/03/28 00:50:41;;;;;;;4.45;1.77;;;25.10;99.90;;;;;;5072817;28;20662;-77
2023/03/28 00:53:16;;;;;;;7.07;2.33;;;25.10;99.90;;;;;;5081675;28;20721;-78
2023/03/28 00:55:51;;;;;;;4.13;2.30;;;25.20;99.90;;;;;;5078829;28;20203;-81
2023/03/28 00:58:25;;;;;;;6.57;3.00;;;25.10;99.90;;;;;;5065700;28;20712;-78
2023/03/28 01:00:58;;;;;;;5.28;2.75;;;25.10;99.90;;;;;;5072333;28;20212;-76
2023/03/28 01:03:34;;;;;;;3.75;2.30;;;25.10;99.90;;;;;;5089789;28;20203;-77
2023/03/28 01:06:06;;;;;;;6.30;2.70;;;25.20;99.90;;;;;;5082121;28;20373;-76
2023/03/28 01:08:40;;;;;;;5.93;2.35;;;25.10;99.90;;;;;;5091756;28;20197;-78
2023/03/28 01:11:13;;;;;;;5.28;2.40;;;25.10;99.90;;;;;;5077992;28;20288;-77
2023/03/28 01:13:49;;;;;;;7.63;2.58;;;25.10;99.90;;;;;;5071093;28;20201;-77
2023/03/28 01:16:22;;;;;;;4.15;2.03;;;25.10;99.90;;;;;;5075051;28;20197;-76
2023/03/28 01:18:55;;;;;;;5.93;2.55;;;25.00;99.90;;;;;;5073910;28;20207;-77
2023/03/28 01:21:48;;;;;;;6.55;2.40;;;25.00;99.90;;;;;;5075931;28;20196;-77
2023/03/28 01:24:58;;;;;;;4.07;2.33;;;25.00;99.90;;;;;;5081401;28;20532;-77
2023/03/28 01:27:35;;;;;;;6.75;2.35;;;25.00;99.90;;;;;;5039061;28;20569;-77
2023/03/28 01:30:36;;;;;;;4.38;1.70;;;25.00;99.90;;;;;;5073296;28;20189;-77
2023/03/28 01:33:48;;;;;;;5.70;2.05;;;25.00;99.90;;;;;;5073516;28;20242;-77
2023/03/28 01:36:57;;;;;;;4.72;1.80;;;24.90;99.90;;;;;;5051441;28;20213;-76
2023/03/28 01:39:39;;;;;;;2.55;1.58;;;24.80;99.90;;;;;;5072913;28;20213;-78
2023/03/28 01:42:17;;;;;;;3.10;1.80;;;24.80;99.90;;;;;;5081133;28;20196;-76
2023/03/28 01:44:54;;;;;;;4.00;2.55;;;24.70;99.90;;;;;;5085288;28;20193;-76
2023/03/28 01:47:32;;;;;;;4.25;1.88;;;24.70;99.90;;;;;;5072086;28;20212;-77
2023/03/28 01:50:09;;;;;;;6.25;2.15;;;24.70;99.90;;;;;;5076002;28;20223;-77
2023/03/28 01:52:48;;;;;;;4.30;1.80;;;24.70;99.90;;;;;;5076458;28;20188;-77
2023/03/28 01:55:25;;;;;;;3.35;2.10;;;24.70;99.90;;;;;;5093151;28;20215;-77
2023/03/28 01:58:04;;;;;;;3.92;2.03;;;24.70;99.90;;;;;;5094203;28;20267;-78
2023/03/28 02:00:42;;;;;;;2.72;1.65;;;24.70;99.90;;;;;;5070366;28;20242;-76
2023/03/28 02:03:17;;;;;;;2.25;1.67;;;24.70;99.90;;;;;;5081208;28;20715;-81
2023/03/28 02:05:50;;;;;;;3.90;1.70;;;24.70;99.90;;;;;;5074292;28;20196;-78
2023/03/28 02:08:24;;;;;;;1.90;1.48;;;24.70;99.90;;;;;;5094117;28;20196;-78
2023/03/28 02:10:57;;;;;;;3.80;1.52;;;24.70;99.90;;;;;;5078750;28;20266;-78
2023/03/28 02:13:30;;;;;;;2.30;1.48;;;24.60;99.90;;;;;;5096491;28;20200;-77
2023/03/28 02:16:03;;;;;;;3.15;1.40;;;24.60;99.90;;;;;;5096130;28;20184;-77
2023/03/28 02:18:38;;;;;;;4.25;1.50;;;24.60;99.90;;;;;;5074714;28;20207;-78
2023/03/28 02:21:11;;;;;;;4.15;1.50;;;24.60;99.90;;;;;;5075999;28;20216;-77
2023/03/28 02:23:47;;;;;;;3.08;1.48;;;24.60;99.90;;;;;;5076041;28;20200;-77
2023/03/28 02:26:19;;;;;;;4.05;1.73;;;24.60;99.90;;;;;;5074849;28;20188;-77
2023/03/28 02:28:53;;;;;;;4.65;1.73;;;24.60;99.90;;;;;;5064027;28;20197;-78
2023/03/28 02:31:25;;;;;;;2.30;1.42;;;24.60;99.90;;;;;;5074697;28;20203;-77
2023/03/28 02:33:57;;;;;;;6.35;2.10;;;24.60;99.90;;;;;;5075163;28;20201;-77
2023/03/28 02:36:35;;;;;;;9.60;3.47;;;24.60;99.90;;;;;;5076235;28;20220;-77
2023/03/28 02:39:31;;;;;;;5.07;2.10;;;24.60;99.90;;;;;;5075815;28;20192;-77
2023/03/28 02:42:27;;;;;;;5.43;1.98;;;24.60;99.90;;;;;;5084701;28;20562;-77
2023/03/28 02:45:22;;;;;;;6.22;1.83;;;24.60;99.90;;;;;;5033401;28;20201;-78
2023/03/28 02:48:04;;;;;;;4.68;1.90;;;24.60;99.90;;;;;;5084021;28;20207;-77
2023/03/28 02:50:39;;;;;;;7.90;2.28;;;24.60;99.90;;;;;;5079418;28;20190;-79
2023/03/28 02:53:16;;;;;;;4.32;2.00;;;24.60;99.90;;;;;;5067737;28;20196;-83
2023/03/28 02:55:55;;;;;;;5.00;1.85;;;24.60;99.90;;;;;;5075033;28;20204;-85
2023/03/28 02:58:33;;;;;;;6.85;1.70;;;24.60;99.90;;;;;;5074888;28;20816;-86
2023/03/28 03:01:06;;;;;;;5.00;2.38;;;24.50;99.90;;;;;;5075220;28;20221;-83
2023/03/28 03:03:38;;;;;;;3.53;1.60;;;24.50;99.90;;;;;;5075133;28;20258;-82
2023/03/28 03:06:11;;;;;;;5.55;1.70;;;24.50;99.90;;;;;;5076365;28;20204;-77
2023/03/28 03:08:42;;;;;;;8.43;2.20;;;24.50;99.90;;;;;;5074081;28;20656;-77
2023/03/28 03:11:15;;;;;;;3.45;1.75;;;24.50;99.90;;;;;;5080936;28;20189;-78
2023/03/28 03:13:46;;;;;;;5.78;1.88;;;24.40;99.90;;;;;;5087168;28;20215;-77
2023/03/28 03:16:17;;;;;;;4.25;2.00;;;24.40;99.90;;;;;;5087894;28;20226;-78
2023/03/28 03:18:48;;;;;;;4.18;1.60;;;24.40;99.90;;;;;;5088188;28;20199;-77
2023/03/28 03:21:20;;;;;;;3.65;1.63;;;24.30;99.90;;;;;;5083601;28;20292;-78
2023/03/28 03:23:51;;;;;;;4.63;2.60;;;24.30;99.90;;;;;;5072195;28;20664;-78
2023/03/28 03:26:24;;;;;;;4.18;1.85;;;24.20;99.90;;;;;;5072558;28;20555;-78
2023/03/28 03:28:56;;;;;;;4.20;1.80;;;24.10;99.90;;;;;;5070742;28;20208;-77
2023/03/28 03:31:27;;;;;;;3.28;1.70;;;24.10;99.90;;;;;;5074259;28;20200;-77
2023/03/28 03:33:58;;;;;;;5.13;1.60;;;24.00;99.90;;;;;;5074382;28;20560;-78
2023/03/28 03:36:30;;;;;;;4.85;1.52;;;24.00;99.90;;;;;;5074529;28;20193;-77
2023/03/28 03:39:02;;;;;;;3.88;1.63;;;23.90;99.90;;;;;;5074459;28;20189;-78
2023/03/28 03:41:35;;;;;;;4.85;1.50;;;23.90;99.90;;;;;;5074331;28;20228;-78
2023/03/28 03:44:06;;;;;;;4.97;1.88;;;23.80;99.90;;;;;;5074759;28;20236;-78
2023/03/28 03:46:37;;;;;;;6.05;2.10;;;23.70;99.90;;;;;;5074365;28;20200;-78
2023/03/28 03:49:09;;;;;;;5.18;1.85;;;23.60;99.90;;;;;;5074397;28;20185;-77
2023/03/28 03:51:40;;;;;;;3.55;2.10;;;23.50;99.90;;;;;;5073106;28;20189;-78
2023/03/28 03:54:11;;;;;;;2.63;1.70;;;23.50;99.90;;;;;;5074225;28;20559;-77
2023/03/28 03:56:44;;;;;;;4.63;2.22;;;23.40;99.90;;;;;;5074110;28;20649;-79
2023/03/28 03:59:16;;;;;;;5.68;2.00;;;23.40;99.90;;;;;;5073950;28;20241;-79
2023/03/28 04:01:47;;;;;;;4.40;1.77;;;23.40;99.90;;;;;;5072792;28;20224;-78
2023/03/28 04:04:18;;;;;;;4.93;1.95;;;23.30;99.90;;;;;;5074009;28;20200;-78
2023/03/28 04:06:49;;;;;;;3.35;2.10;;;23.30;99.90;;;;;;5074085;28;20185;-78
2023/03/28 04:09:23;;;;;;;2.85;1.80;;;23.20;99.90;;;;;;5073439;28;20196;-78
2023/03/28 04:11:56;;;;;;;2.65;1.70;;;23.20;99.90;;;;;;5073739;28;20189;-77
2023/03/28 04:14:27;;;;;;;2.78;1.90;;;23.10;99.90;;;;;;5073525;28;20200;-77
2023/03/28 04:16:58;;;;;;;5.18;1.90;;;23.00;99.90;;;;;;5073808;28;20189;-78
2023/03/28 04:19:29;;;;;;;4.82;2.10;;;23.00;99.90;;;;;;5073855;28;20198;-78
2023/03/28 04:22:03;;;;;;;4.97;2.10;;;23.00;99.90;;;;;;5070361;28;20216;-78
2023/03/28 04:24:36;;;;;;;4.15;1.95;;;23.00;99.90;;;;;;5073462;28;20197;-78
2023/03/28 04:27:09;;;;;;;4.75;2.15;;;22.90;99.90;;;;;;5065161;28;20196;-78
2023/03/28 04:29:40;;;;;;;3.17;2.00;;;22.90;99.90;;;;;;5089050;28;20196;-77
2023/03/28 04:32:12;;;;;;;3.42;2.10;;;22.80;99.90;;;;;;5083201;28;20280;-77
2023/03/28 04:34:44;;;;;;;5.30;2.35;;;22.80;99.90;;;;;;5076180;28;20192;-77
2023/03/28 04:37:16;;;;;;;4.10;2.30;;;22.70;99.90;;;;;;5091583;28;20192;-76
2023/03/28 04:39:47;;;;;;;5.00;2.30;;;22.70;99.90;;;;;;5092244;28;20196;-77
2023/03/28 04:42:21;;;;;;;5.80;2.35;;;22.60;99.90;;;;;;5085218;28;20621;-77
2023/03/28 04:44:52;;;;;;;5.70;2.50;;;22.60;99.90;;;;;;5063626;28;20567;-78
2023/03/28 04:47:24;;;;;;;5.93;2.60;;;22.50;99.90;;;;;;5074590;28;20902;-77
2023/03/28 04:49:55;;;;;;;7.97;2.75;;;22.40;99.90;;;;;;5083908;28;20200;-76
2023/03/28 04:52:27;;;;;;;2.80;2.10;;;22.30;99.90;;;;;;5091296;28;20196;-77
2023/03/28 04:54:58;;;;;;;3.95;2.20;;;22.10;99.90;;;;;;5080089;28;20200;-76
2023/03/28 04:57:31;;;;;;;2.67;1.83;;;22.00;99.90;;;;;;5075991;28;20698;-75
2023/03/28 05:00:03;;;;;;;5.65;2.25;;;21.90;99.90;;;;;;5072543;28;20197;-76
2023/03/28 05:02:35;;;;;;;4.75;2.20;;;21.80;99.90;;;;;;5077605;28;20222;-77
2023/03/28 05:05:06;;;;;;;4.10;2.65;;;21.70;99.90;;;;;;5091345;28;20219;-75
2023/03/28 05:07:37;;;;;;;5.10;2.03;;;21.60;99.90;;;;;;5090062;28;20711;-77
2023/03/28 05:10:09;;;;;;;5.75;2.28;;;21.60;99.90;;;;;;5085440;28;20192;-76
2023/03/28 05:12:42;;;;;;;6.07;2.05;;;21.50;99.90;;;;;;5078325;28;20192;-76
2023/03/28 05:15:14;;;;;;;4.97;2.08;;;21.50;99.90;;;;;;5072123;28;20204;-75
2023/03/28 05:17:45;;;;;;;5.32;2.20;;;21.50;99.90;;;;;;5087798;28;20204;-75
2023/03/28 05:20:17;;;;;;;5.70;2.35;;;21.40;99.90;;;;;;5092293;28;20200;-75
2023/03/28 05:22:48;;;;;;;3.35;1.90;;;21.40;99.90;;;;;;5082834;28;20276;-75
2023/03/28 05:25:20;;;;;;;6.43;2.33;;;21.30;99.90;;;;;;5075697;28;20188;-76
2023/03/28 05:27:53;;;;;;;3.97;2.28;;;21.30;99.90;;;;;;5085461;28;20544;-74
2023/03/28 05:30:24;;;;;;;4.22;2.00;;;21.30;99.90;;;;;;5088258;28;20196;-74
2023/03/28 05:32:55;;;;;;;3.60;1.80;;;21.30;99.90;;;;;;5077171;28;20196;-74
2023/03/28 05:35:26;;;;;;;4.40;2.25;;;21.30;99.90;;;;;;5079684;28;20197;-73
2023/03/28 05:37:57;;;;;;;5.43;2.03;;;21.40;99.90;;;;;;5076865;28;20197;-73
2023/03/28 05:40:28;;;;;;;5.10;2.08;;;21.30;99.90;;;;;;5056206;28;20185;-73
2023/03/28 05:43:01;;;;;;;3.45;1.73;;;21.40;99.90;;;;;;5073872;28;20196;-73
2023/03/28 05:45:32;;;;;;;5.97;2.10;;;21.40;99.90;;;;;;5083898;28;20559;-73
2023/03/28 05:48:04;;;;;;;3.63;1.70;;;21.50;99.90;;;;;;5072893;28;20319;-73
2023/03/28 05:50:35;;;;;;;8.32;2.28;;;21.50;99.90;;;;;;5066083;28;20182;-72
2023/03/28 05:53:06;;;;;;;8.10;2.10;;;21.50;99.90;;;;;;5076466;28;20189;-73
2023/03/28 05:55:37;;;;;;;4.32;1.88;;;21.50;99.90;;;;;;5075954;28;20192;-73
2023/03/28 05:58:10;;;;;;;3.80;1.70;;;21.50;99.90;;;;;;5074619;28;20319;-73
2023/03/28 06:00:43;;;;;;;3.03;1.70;;;21.50;99.90;;;;;;5076519;28;20192;-74
2023/03/28 06:03:16;;;;;;;6.63;1.70;;;21.50;99.90;;;;;;5075968;28;20201;-73
2023/03/28 06:05:47;;;;;;;3.58;1.73;;;21.50;99.90;;;;;;5076241;28;20197;-73
2023/03/28 06:08:18;;;;;;;3.40;1.58;;;21.40;99.90;;;;;;5075853;28;20197;-73
2023/03/28 06:10:49;;;;;;;2.78;1.65;;;21.40;99.90;;;;;;5075720;28;20193;-73
2023/03/28 06:13:22;;;;;;;1.92;1.40;;;21.40;99.90;;;;;;5075867;28;20189;-73
2023/03/28 06:15:53;;;;;;;3.67;1.70;;;21.40;99.90;;;;;;5076033;28;20196;-73
2023/03/28 06:18:24;;;;;;;2.42;1.55;;;21.40;99.90;;;;;;5073695;28;20192;-73
2023/03/28 06:20:55;;;;;;;2.97;1.98;;;21.40;99.90;;;;;;5064955;28;20248;-84
2023/03/28 06:23:27;;;;;;;2.85;1.50;;;21.40;99.90;;;;;;5075769;28;20181;-83
2023/03/28 06:25:58;;;;;;;4.93;1.90;;;21.40;99.90;;;;;;5075803;28;20197;-73
2023/03/28 06:28:31;;;;;;;4.72;2.10;;;21.40;99.90;;;;;;5075299;28;20181;-74
2023/03/28 06:31:02;;;;;;;3.67;1.90;;;21.40;99.90;;;;;;5075403;28;20204;-73
2023/03/28 06:33:33;;;;;;;2.03;1.35;;;21.40;99.90;;;;;;5075706;28;20186;-73
2023/03/28 06:36:04;;;;;;;3.13;1.77;;;21.30;99.90;;;;;;5075546;28;20682;-74
2023/03/28 06:38:35;;;;;;;2.50;1.80;;;21.30;99.90;;;;;;5075217;28;20561;-74
2023/03/28 06:41:07;;;;;;;2.38;1.50;;;21.30;99.90;;;;;;5075318;28;20212;-73
2023/03/28 06:43:40;;;;;;;2.28;1.50;;;21.30;99.90;;;;;;5075234;28;20644;-75
2023/03/28 06:46:12;;;;;;;3.75;1.40;;;21.20;99.90;;;;;;5075467;28;20248;-74
2023/03/28 06:48:43;;;;;;;2.00;1.42;;;21.20;99.90;;;;;;5074952;28;20239;-74
2023/03/28 06:51:14;;;;;;;4.63;1.63;;;21.20;99.90;;;;;;5075006;28;20197;-73
2023/03/28 06:53:45;;;;;;;3.88;1.50;;;21.10;99.90;;;;;;5081541;28;20193;-74
2023/03/28 06:56:16;;;;;;;2.63;1.27;;;21.10;99.90;;;;;;5085429;28;20196;-74
2023/03/28 06:58:49;;;;;;;2.45;1.27;;;21.10;99.90;;;;;;5081479;28;20685;-73
2023/03/28 07:01:20;;;;;;;2.75;1.45;;;21.10;99.90;;;;;;5078088;28;20231;-74
2023/03/28 07:03:52;;;;;;;2.00;1.27;;;21.00;99.90;;;;;;5068147;28;20213;-74
2023/03/28 07:06:23;;;;;;;3.15;1.58;;;21.00;99.90;;;;;;5065023;28;20204;-74
2023/03/28 07:08:54;;;;;;;2.13;1.40;;;21.00;99.90;;;;;;5069996;28;20216;-75
2023/03/28 07:11:25;;;;;;;2.63;1.30;;;21.00;99.90;;;;;;5068947;28;20664;-82
2023/03/28 07:13:58;;;;;;;1.88;1.20;;;21.00;99.90;;;;;;5081294;28;20195;-75
2023/03/28 07:16:29;;;;;;;1.95;1.42;;;21.00;99.90;;;;;;5082538;28;20211;-74
2023/03/28 07:19:00;;;;;;;1.90;1.30;;;21.00;99.90;;;;;;5081740;28;21352;-75
2023/03/28 07:21:31;;;;;;;1.90;1.30;;;21.00;99.90;;;;;;5074539;28;20213;-74
2023/03/28 07:24:02;;;;;;;2.85;1.50;;;21.00;99.90;;;;;;5074194;28;20203;-83
2023/03/28 07:26:33;;;;;;;2.95;1.50;;;20.90;99.90;;;;;;5064293;28;20197;-85
2023/03/28 07:29:06;;;;;;;1.90;1.35;;;20.90;99.90;;;;;;5074013;28;20197;-85
2023/03/28 07:31:38;;;;;;;3.63;1.67;;;20.90;99.90;;;;;;5073220;28;20678;-83
2023/03/28 07:34:09;;;;;;;2.28;1.35;;;20.90;99.90;;;;;;5073786;28;20196;-83
2023/03/28 07:36:40;;;;;;;2.72;1.30;;;21.00;99.90;;;;;;5073169;28;20193;-84
2023/03/28 07:39:11;;;;;;;2.83;1.30;;;20.90;99.90;;;;;;5074186;28;20293;-84
2023/03/28 07:41:43;;;;;;;2.70;1.30;;;20.90;99.90;;;;;;5074077;28;20300;-81
2023/03/28 07:44:16;;;;;;;1.40;1.23;;;20.90;99.90;;;;;;5073320;28;20197;-84
2023/03/28 07:46:47;;;;;;;2.35;1.30;;;20.90;99.90;;;;;;5066991;28;20220;-75
2023/03/28 07:49:19;;;;;;;3.55;1.10;;;20.80;99.90;;;;;;5072327;28;20211;-75
2023/03/28 07:51:51;;;;;;;1.77;1.20;;;20.90;99.90;;;;;;5072921;28;20254;-75
2023/03/28 07:54:23;;;;;;;2.83;1.25;;;20.80;99.90;;;;;;5072905;28;20200;-75
2023/03/28 07:56:54;;;;;;;1.88;1.25;;;20.80;99.90;;;;;;5074239;28;20316;-75
2023/03/28 07:59:27;;;;;;;1.23;1.13;;;20.80;99.90;;;;;;5077971;28;20573;-80
2023/03/28 08:01:58;;;;;;;2.30;1.42;;;20.80;99.90;;;;;;5073562;28;20224;-78
2023/03/28 08:04:30;;;;;;;1.42;1.30;;;20.80;99.90;;;;;;5072820;28;20586;-75
2023/03/28 08:07:01;;;;;;;1.38;1.20;;;20.80;99.90;;;;;;5071679;28;20212;-75
2023/03/28 08:09:32;;;;;;;1.70;1.10;;;20.80;99.90;;;;;;5079094;28;20246;-75
2023/03/28 08:12:03;;;;;;;3.30;1.45;;;20.80;99.90;;;;;;5072658;28;20197;-75
2023/03/28 08:14:36;;;;;;;2.58;1.63;;;20.70;99.90;;;;;;5081299;28;20192;-76
2023/03/28 08:17:08;;;;;;;2.28;1.42;;;20.80;99.90;;;;;;5076460;28;20201;-76
2023/03/28 08:19:39;;;;;;;2.58;1.60;;;20.70;99.90;;;;;;5072744;28;20236;-75
2023/03/28 08:22:11;;;;;;;4.85;1.98;;;20.80;99.90;;;;;;5073089;28;20213;-75
2023/03/28 08:24:42;;;;;;;6.05;2.45;;;20.80;99.90;;;;;;5076629;28;20197;-75
2023/03/28 08:27:13;;;;;;;4.35;2.00;;;20.80;99.90;;;;;;5072408;28;20193;-82
2023/03/28 08:29:46;;;;;;;3.58;1.98;;;20.70;99.90;;;;;;5076593;28;20192;-75
2023/03/28 08:32:17;;;;;;;2.28;1.60;;;20.70;99.90;;;;;;5058979;28;20599;-75
2023/03/28 08:34:49;;;;;;;2.75;1.67;;;20.70;99.90;;;;;;5078669;28;20281;-75
2023/03/28 08:37:20;;;;;;;4.03;1.58;;;20.70;99.90;;;;;;5073848;28;20208;-76
2023/03/28 08:39:51;;;;;;;2.78;1.70;;;20.70;99.90;;;;;;5073701;28;20204;-76
2023/03/28 08:42:53;;;;;;;2.17;1.60;;;20.80;99.90;;;;;;5071930;28;20562;-75
2023/03/28 08:45:38;;;;;;;2.92;1.65;;;20.70;99.90;;;;;;5057923;28;20199;-76
2023/03/28 08:48:21;;;;;;;4.18;1.52;;;20.70;99.90;;;;;;5075524;28;20200;-76
2023/03/28 08:50:56;;;;;;;2.67;1.40;;;20.70;99.90;;;;;;5073451;28;20220;-75
2023/03/28 08:53:33;;;;;;;3.20;1.77;;;20.70;99.90;;;;;;5075498;28;20548;-75
2023/03/28 08:56:07;;;;;;;2.15;1.58;;;20.70;99.90;;;;;;5073300;28;20192;-76
2023/03/28 08:58:46;;;;;;;2.55;1.77;;;20.70;99.90;;;;;;5079791;28;20237;-76
2023/03/28 09:01:22;;;;;;;3.58;1.55;;;20.70;99.90;;;;;;5075086;28;20195;-76
2023/03/28 09:03:53;;;;;;;2.97;1.63;;;20.60;99.90;;;;;;5071960;28;20200;-76
2023/03/28 09:06:30;;;;;;;3.05;1.40;;;20.60;99.90;;;;;;5069861;28;20674;-76
2023/03/28 09:09:13;;;;;;;2.10;1.50;;;20.70;99.90;;;;;;5071745;28;20196;-76
2023/03/28 09:11:56;;;;;;;1.60;1.20;;;20.70;99.90;;;;;;5081653;28;20205;-76
2023/03/28 09:14:46;;;;;;;2.85;1.20;;;20.60;99.90;;;;;;5073305;28;20201;-77
2023/03/28 09:17:25;;;;;;;2.97;1.20;;;20.60;99.90;;;;;;5074243;28;20201;-76
2023/03/28 09:20:10;;;;;;;1.98;1.30;;;20.60;99.90;;;;;;5081690;28;20192;-78
2023/03/28 09:22:53;;;;;;;3.30;1.17;;;20.60;99.90;;;;;;5083672;28;20349;-77
2023/03/28 09:25:34;;;;;;;1.58;1.20;;;20.60;99.90;;;;;;5069985;28;20193;-76
2023/03/28 09:28:15;;;;;;;3.33;1.20;;;20.50;99.90;;;;;;5078018;28;20647;-80
2023/03/28 09:30:48;;;;;;;3.28;1.40;;;20.50;99.90;;;;;;5074009;28;20193;-75
2023/03/28 09:33:28;;;;;;;1.45;1.30;;;20.50;99.90;;;;;;5076237;28;20201;-76
2023/03/28 09:35:59;;;;;;;1.50;1.20;;;20.50;99.90;;;;;;5080435;28;20234;-77
2023/03/28 09:38:37;;;;;;;1.63;1.17;;;20.40;99.90;;;;;;5074513;28;20196;-76
2023/03/28 09:41:14;;;;;;;1.83;1.27;;;20.50;99.90;;;;;;5079289;28;20204;-75
2023/03/28 09:43:49;;;;;;;1.52;1.20;;;20.50;99.90;;;;;;5068112;28;20258;-76
2023/03/28 09:46:30;;;;;;;3.50;1.10;;;20.50;99.90;;;;;;5070030;28;20201;-76
2023/03/28 09:49:03;;;;;;;2.58;1.25;;;20.50;99.90;;;;;;5068088;28;20197;-86
2023/03/28 09:51:34;;;;;;;3.20;1.15;;;20.50;99.90;;;;;;5071461;28;20541;-77
2023/03/28 09:54:09;;;;;;;1.58;1.20;;;20.50;99.90;;;;;;5073330;28;20208;-78
2023/03/28 09:56:43;;;;;;;4.05;1.45;;;20.50;99.90;;;;;;5060119;28;20220;-77
2023/03/28 09:59:25;;;;;;;2.25;1.13;;;20.50;99.90;;;;;;5062439;28;20230;-76
2023/03/28 10:01:57;;;;;;;2.15;1.40;;;20.50;99.90;;;;;;5071469;28;20207;-76
2023/03/28 10:04:39;;;;;;;2.47;0.93;;;20.50;99.90;;;;;;5072046;28;20216;-76
2023/03/28 10:07:32;;;;;;;1.80;1.13;;;20.50;99.90;;;;;;5075283;28;20287;-76
2023/03/28 10:10:17;;;;;;;1.40;1.00;;;20.50;99.90;;;;;;5082964;28;20208;-75
2023/03/28 10:12:50;;;;;;;2.30;1.20;;;20.50;99.90;;;;;;5080259;28;20192;-76
2023/03/28 10:15:37;;;;;;;1.30;1.20;;;20.50;99.90;;;;;;5088333;28;20588;-76
2023/03/28 10:18:08;;;;;;;1.65;1.20;;;20.50;99.90;;;;;;5084696;28;20200;-76
2023/03/28 10:20:44;;;;;;;1.88;1.30;;;20.50;99.90;;;;;;5079807;28;20196;-76
2023/03/28 10:23:16;;;;;;;1.95;1.20;;;20.50;99.90;;;;;;5076536;28;20216;-75
2023/03/28 10:25:51;;;;;;;2.25;1.20;;;20.60;99.90;;;;;;5087631;28;20193;-75
2023/03/28 10:28:31;;;;;;;1.48;1.20;;;20.60;99.90;;;;;;5075517;28;20246;-76
2023/03/28 10:31:03;;;;;;;2.47;1.40;;;20.60;99.90;;;;;;5079818;28;20638;-76
2023/03/28 10:33:39;;;;;;;2.83;1.30;;;20.60;99.90;;;;;;5086739;28;20197;-76
2023/03/28 10:36:13;;;;;;;3.20;1.30;;;20.60;99.90;;;;;;5078367;28;20208;-75
2023/03/28 10:38:49;;;;;;;2.53;1.30;;;20.60;99.90;;;;;;5086118;28;20199;-76
2023/03/28 10:41:24;;;;;;;2.08;1.40;;;20.60;99.90;;;;;;5080263;28;20196;-77
2023/03/28 10:43:56;;;;;;;3.15;1.48;;;20.60;99.90;;;;;;5075132;28;20212;-77
2023/03/28 10:46:32;;;;;;;2.08;1.33;;;20.60;99.90;;;;;;5072693;28;20216;-76
2023/03/28 10:49:07;;;;;;;4.03;1.60;;;20.60;99.90;;;;;;5076858;28;20203;-75
2023/03/28 10:51:41;;;;;;;2.92;1.50;;;20.60;99.90;;;;;;5082952;28;20192;-76
2023/03/28 10:54:35;;;;;;;2.38;1.30;;;20.60;99.90;;;;;;5083579;28;20199;-75
2023/03/28 10:57:13;;;;;;;5.60;1.63;;;20.50;99.90;;;;;;5083769;28;20204;-75
2023/03/28 10:59:56;;;;;;;2.50;1.25;;;20.50;99.90;;;;;;5073563;28;20228;-75
2023/03/28 11:02:51;;;;;;;2.50;1.67;;;20.50;99.90;;;;;;5085285;28;20212;-76
2023/03/28 11:05:35;;;;;;;3.05;1.30;;;20.50;99.90;;;;;;5076930;28;20196;-76
2023/03/28 11:08:28;;;;;;;2.22;1.20;;;20.50;99.90;;;;;;5074317;28;20587;-75
2023/03/28 11:11:06;;;;;;;1.98;1.13;;;20.50;99.90;;;;;;5080305;28;20203;-76
2023/03/28 11:13:45;;;;;;;1.40;1.00;;;20.50;99.90;;;;;;5073326;28;20660;-76
2023/03/28 11:16:24;;;;;;;3.42;1.40;;;20.50;99.90;;;;;;5073872;28;20661;-76
2023/03/28 11:19:06;;;;;;;4.28;1.70;;;20.40;99.90;;;;;;5073692;28;20219;-76
2023/03/28 11:21:44;;;;;;;4.20;1.40;;;20.50;99.90;;;;;;5069619;28;20241;-76
2023/03/28 11:24:29;;;;;;;2.70;1.33;;;20.40;99.90;;;;;;5073175;28;20212;-75
2023/03/28 11:27:08;;;;;;;2.55;1.33;;;20.50;99.90;;;;;;5063603;28;20185;-75
2023/03/28 11:29:48;;;;;;;1.70;1.13;;;20.40;99.90;;;;;;5074252;28;20193;-77
2023/03/28 11:32:23;;;;;;;1.88;1.40;;;20.40;99.90;;;;;;5074765;28;20220;-76
2023/03/28 11:35:06;;;;;;;1.80;1.17;;;20.40;99.90;;;;;;5072090;28;20558;-76
2023/03/28 11:37:43;;;;;;;3.58;1.63;;;20.40;99.90;;;;;;5073815;28;20189;-76
2023/03/28 11:40:24;;;;;;;1.40;1.25;;;20.50;99.90;;;;;;5065529;28;20192;-77
2023/03/28 11:43:00;;;;;;;3.05;1.50;;;20.40;99.90;;;;;;5069864;28;20212;-80
2023/03/28 11:45:34;;;;;;;3.70;1.40;;;20.40;99.90;;;;;;5074545;28;20192;-78
2023/03/28 11:48:11;;;;;;;1.42;1.23;;;20.40;99.90;;;;;;5074471;28;20547;-79
2023/03/28 11:50:55;;;;;;;1.83;1.13;;;20.40;99.90;;;;;;5054681;28;20395;-78
2023/03/28 11:53:30;;;;;;;1.80;1.20;;;20.30;99.90;;;;;;5054483;28;20636;-77
2023/03/28 11:56:10;;;;;;;1.20;1.10;;;20.30;99.90;;;;;;5054073;28;20204;-77
2023/03/28 11:58:45;;;;;;;1.35;1.02;;;20.30;99.90;;;;;;5055058;28;20820;-78
2023/03/28 12:01:20;;;;;;;1.10;1.00;;;20.30;99.90;;;;;;5062696;28;20250;-77
2023/03/28 12:04:01;;;;;;;1.55;1.30;;;20.30;99.90;;;;;;5075135;28;20226;-78
2023/03/28 12:06:37;;;;;;;3.25;1.10;;;20.20;99.90;;;;;;5076027;28;20185;-77
2023/03/28 12:09:15;;;;;;;1.95;1.05;;;20.30;99.90;;;;;;5081785;28;20199;-78
2023/03/28 12:11:58;;;;;;;1.17;1.08;;;20.20;99.90;;;;;;5088992;28;20207;-77
2023/03/28 12:14:43;;;;;;;3.00;0.90;;;20.20;99.90;;;;;;5074034;28;20204;-77
2023/03/28 12:17:22;;;;;;;1.35;1.05;;;20.20;99.90;;;;;;5073462;28;20670;-77
2023/03/28 12:19:53;;;;;;;2.38;1.17;;;20.20;99.90;;;;;;5072392;28;20200;-76
2023/03/28 12:22:29;;;;;;;2.72;1.17;;;20.30;99.90;;;;;;5085243;28;20204;-77
2023/03/28 12:25:09;;;;;;;1.05;1.00;;;20.20;99.90;;;;;;5091965;28;20643;-76
2023/03/28 12:28:02;;;;;;;1.17;1.00;;;20.30;99.90;;;;;;5081746;28;20656;-77
2023/03/28 12:30:41;;;;;;;1.50;1.05;;;20.20;99.90;;;;;;5070265;28;20201;-76
2023/03/28 12:33:25;;;;;;;2.28;1.00;;;20.20;99.90;;;;;;5070250;28;20228;-77
2023/03/28 12:36:00;;;;;;;2.17;1.08;;;20.20;99.90;;;;;;5073611;28;20200;-77
2023/03/28 12:38:38;;;;;;;2.53;1.00;;;20.20;99.90;;;;;;5073896;28;20231;-76
2023/03/28 12:41:13;;;;;;;2.90;1.33;;;20.20;99.90;;;;;;5073433;28;20207;-76
2023/03/28 12:43:50;;;;;;;2.50;1.30;;;20.10;99.90;;;;;;5076308;28;20211;-76
2023/03/28 12:46:27;;;;;;;1.83;1.20;;;20.10;99.90;;;;;;5081297;28;20258;-76
2023/03/28 12:49:02;;;;;;;1.58;1.05;;;20.10;99.90;;;;;;5076830;28;20204;-80
2023/03/28 12:51:38;;;;;;;2.90;1.38;;;20.10;99.90;;;;;;5078280;28;20197;-76
2023/03/28 12:54:25;;;;;;;2.42;1.35;;;20.10;99.90;;;;;;5075426;28;20201;-76
2023/03/28 12:57:05;;;;;;;1.88;1.20;;;20.10;99.90;;;;;;5072804;28;20211;-77
2023/03/28 13:00:09;;;;;;;2.95;1.30;;;20.10;99.90;;;;;;5083135;28;20713;-76
2023/03/28 13:02:50;;;;;;;2.42;1.30;;;20.10;99.90;;;;;;5056151;28;20197;-76
2023/03/28 13:05:27;;;;;;;3.67;1.27;;;20.00;99.90;;;;;;5073511;28;20204;-77
2023/03/28 13:08:06;;;;;;;2.33;1.10;;;20.00;99.90;;;;;;5072922;28;20208;-76
2023/03/28 13:10:44;;;;;;;2.40;1.40;;;20.10;99.90;;;;;;5072435;28;20192;-76
2023/03/28 13:13:29;;;;;;;3.80;1.40;;;20.10;99.90;;;;;;5074944;28;20201;-78
2023/03/28 13:16:08;;;;;;;1.83;1.20;;;20.00;99.90;;;;;;5060697;28;20196;-76
2023/03/28 13:18:49;;;;;;;1.08;1.02;;;20.00;99.90;;;;;;5091400;28;20273;-80
2023/03/28 13:21:48;;;;;;;1.70;1.00;;;20.10;99.90;;;;;;5078210;28;20651;-80
2023/03/28 13:24:34;;;;;;;1.65;1.30;;;20.10;99.90;;;;;;5076367;28;20311;-77
2023/03/28 13:27:12;;;;;;;1.90;1.33;;;20.10;99.90;;;;;;5087260;28;20196;-78
2023/03/28 13:29:48;;;;;;;2.67;1.35;;;20.10;99.90;;;;;;5055744;28;20556;-76
2023/03/28 13:32:24;;;;;;;3.13;1.55;;;20.10;99.90;;;;;;5081149;28;20196;-77